Terminal Aerodrome Forecast
Issued by NWS Charleston, WV

Current Version | Previous Version | Graphics & Text | Print | Product List | Glossary On
Versions: 1 2 3 4 5 6 7 8 9 10 11 12 13 14 15 16 17 18 19 20 21 22 23 24 25
000
FTUS41 KRLX 070900 AAA
TAFCRW
TAF AMD
KCRW 070901Z 0709/0806 20004KT P6SM SKC
     FM071200 VRB03KT P6SM SCT250
     FM071400 23009KT P6SM SCT130
     FM071800 23013G20KT P6SM SCT150
     FM080000 23010KT P6SM BKN070=

USA.gov is the U.S. government's official web portal to all federal, state and local government web resources and services.